createdAt,value
2022-08-11T00:01:27.042Z,100690.56
2022-08-11T00:04:04.291Z,100740.50
2022-08-11T00:06:38.275Z,100709.81
2022-08-11T00:09:11.794Z,100708.06
2022-08-11T00:11:43.827Z,100713.34
2022-08-11T00:14:25.015Z,100725.59
2022-08-11T00:17:09.167Z,100728.25
2022-08-11T00:20:12.554Z,100687.03
2022-08-11T00:22:31.048Z,100728.25
2022-08-11T00:25:02.444Z,100744.03
2022-08-11T00:27:35.483Z,100693.19
2022-08-11T00:30:05.714Z,100717.72
2022-08-11T00:32:34.040Z,100747.56
2022-08-11T00:35:54.808Z,100736.13
2022-08-11T00:37:54.319Z,100748.41
2022-08-11T00:40:44.375Z,100744.00
2022-08-11T00:43:24.144Z,100745.69
2022-08-11T00:46:11.377Z,100746.56
2022-08-11T00:49:21.619Z,100750.09
2022-08-11T00:52:24.001Z,100750.94
2022-08-11T00:55:15.690Z,100750.94
2022-08-11T00:58:10.279Z,100751.84
2022-08-11T01:00:59.357Z,100743.09
2022-08-11T01:03:43.168Z,100672.06
2022-08-11T01:06:37.991Z,100748.34
2022-08-11T01:09:33.180Z,100749.22
2022-08-11T01:12:37.701Z,100753.59
2022-08-11T01:15:55.652Z,100754.47
2022-08-11T01:18:46.096Z,100759.72
2022-08-11T01:21:19.117Z,100757.97
2022-08-11T01:24:40.506Z,100762.34
2022-08-11T01:27:22.242Z,100762.34
2022-08-11T01:30:14.339Z,100760.59
2022-08-11T01:33:12.191Z,100757.09
2022-08-11T01:36:18.893Z,100766.69
2022-08-11T01:39:07.417Z,100758.81
2022-08-11T01:42:02.431Z,100757.94
2022-08-11T01:44:38.247Z,100774.59
2022-08-11T01:47:54.330Z,100775.47
2022-08-11T01:50:25.337Z,100737.69
2022-08-11T01:53:07.846Z,100769.28
2022-08-11T01:55:49.226Z,100788.53
2022-08-11T01:58:53.769Z,100773.66
2022-08-11T02:01:20.685Z,100771.03
2022-08-11T02:04:34.040Z,100758.75
2022-08-11T02:07:26.308Z,100791.16
2022-08-11T02:10:29.645Z,100785.03
2022-08-11T02:13:44.708Z,100799.09
2022-08-11T02:16:41.696Z,100795.59
2022-08-11T02:19:37.145Z,100794.75
2022-08-11T02:22:38.097Z,100800.00
2022-08-11T02:25:09.601Z,100803.56
2022-08-11T02:27:44.071Z,100787.75
2022-08-11T02:30:16.487Z,100802.69
2022-08-11T02:33:24.036Z,100821.09
2022-08-11T02:36:06.401Z,100806.19
2022-08-11T02:38:55.938Z,100803.56
2022-08-11T02:41:51.289Z,100764.06
2022-08-11T02:44:54.119Z,100807.94
2022-08-11T02:47:40.010Z,100814.13
2022-08-11T02:50:19.508Z,100821.16
2022-08-11T02:53:17.523Z,100822.06
2022-08-11T02:56:08.865Z,100818.56
2022-08-11T02:59:09.246Z,100817.69
2022-08-11T03:01:48.365Z,100823.81
2022-08-11T03:04:25.485Z,100814.47
2022-08-11T03:07:43.491Z,100810.69
2022-08-11T03:10:25.480Z,100813.19
2022-08-11T03:13:40.702Z,100831.34
2022-08-11T03:16:45.768Z,100794.34
2022-08-11T03:19:23.167Z,100815.41
2022-08-11T03:22:16.425Z,100815.50
2022-08-11T03:24:46.646Z,100822.31
2022-08-11T03:27:50.318Z,100816.41
2022-08-11T03:30:23.904Z,100821.50
2022-08-11T03:33:34.114Z,100812.25
2022-08-11T03:36:07.277Z,100813.06
2022-08-11T03:38:52.918Z,100810.19
2022-08-11T03:42:04.072Z,100821.75
2022-08-11T03:45:05.860Z,100819.91
2022-08-11T03:47:52.262Z,100808.19
2022-08-11T03:51:01.082Z,100805.91
2022-08-11T03:54:00.551Z,100807.59
2022-08-11T03:57:12.364Z,100803.31
2022-08-11T03:59:56.557Z,100798.63
2022-08-11T04:02:36.535Z,100798.13
2022-08-11T04:05:31.850Z,100812.09
2022-08-11T04:08:23.441Z,100818.47
2022-08-11T04:10:53.088Z,100816.16
2022-08-11T04:13:36.919Z,100818.38
2022-08-11T04:16:26.055Z,100827.34
2022-08-11T04:19:05.409Z,100824.66
2022-08-11T04:21:35.413Z,100826.91
2022-08-11T04:24:36.971Z,100834.56
2022-08-11T04:27:19.211Z,100830.78
2022-08-11T04:30:03.183Z,100833.53
2022-08-11T04:32:42.741Z,100833.47
2022-08-11T04:35:21.826Z,100853.88
2022-08-11T04:37:55.770Z,100832.28
2022-08-11T04:40:41.461Z,100836.06
2022-08-11T04:44:04.643Z,100837.34
2022-08-11T04:46:54.738Z,100833.56
2022-08-11T04:50:02.487Z,100836.13
2022-08-11T04:52:52.510Z,100840.91
2022-08-11T04:56:00.001Z,100839.34
2022-08-11T04:58:48.663Z,100856.06
2022-08-11T05:01:53.264Z,100837.78
2022-08-11T05:04:47.982Z,100842.75
2022-08-11T05:07:17.539Z,100844.09
2022-08-11T05:10:08.987Z,100838.25
2022-08-11T05:13:23.632Z,100839.72
2022-08-11T05:16:15.815Z,100839.75
2022-08-11T05:19:21.268Z,100842.88
2022-08-11T05:22:14.407Z,100848.88
2022-08-11T05:25:04.295Z,100812.16
2022-08-11T05:28:04.314Z,100833.09
2022-08-11T05:30:51.178Z,100841.19
2022-08-11T05:33:52.037Z,100836.69
2022-08-11T05:36:42.214Z,100843.75
2022-08-11T05:39:50.243Z,100849.44
2022-08-11T05:42:38.083Z,100847.81
2022-08-11T05:45:57.302Z,100849.94
2022-08-11T05:48:51.043Z,100856.63
2022-08-11T05:51:37.840Z,100856.50
2022-08-11T05:54:28.820Z,100848.41
2022-08-11T05:57:00.000Z,100856.91
2022-08-11T05:59:30.811Z,100846.31
2022-08-11T06:02:03.239Z,100852.00
2022-08-11T06:04:31.569Z,100851.84
2022-08-11T06:07:17.942Z,100817.50
2022-08-11T06:09:48.918Z,100842.63
2022-08-11T06:12:25.966Z,100845.09
2022-08-11T06:14:58.147Z,100834.44
2022-08-11T06:17:38.549Z,100822.19
2022-08-11T06:20:11.852Z,100845.56
2022-08-11T06:22:42.152Z,100837.41
2022-08-11T06:25:12.351Z,100837.25
2022-08-11T06:27:43.194Z,100850.47
2022-08-11T06:30:14.070Z,100854.72
2022-08-11T06:32:46.501Z,100812.13
2022-08-11T06:35:19.441Z,100847.41
2022-08-11T06:37:49.485Z,100844.78
2022-08-11T06:41:06.737Z,100835.38
2022-08-11T06:43:56.047Z,100847.88
2022-08-11T06:46:28.528Z,100848.75
2022-08-11T06:48:56.761Z,100851.22
2022-08-11T06:51:24.480Z,100809.13
2022-08-11T06:54:05.382Z,100817.31
2022-08-11T07:00:02.136Z,100839.53
2022-08-11T07:02:37.338Z,100836.91
2022-08-11T07:05:11.727Z,100840.84
2022-08-11T07:08:34.668Z,100829.59
2022-08-11T07:11:46.258Z,100838.69
2022-08-11T07:14:42.913Z,100839.00
2022-08-11T07:17:18.467Z,100839.81
2022-08-11T07:20:11.902Z,100828.81
2022-08-11T07:22:58.019Z,100836.25
2022-08-11T07:25:46.441Z,100834.22
2022-08-11T07:28:44.127Z,100834.66
2022-08-11T07:31:17.747Z,100817.31
2022-08-11T07:34:05.845Z,100828.06
2022-08-11T07:36:42.863Z,100837.91
2022-08-11T07:39:19.099Z,100826.25
2022-08-11T07:41:47.707Z,100830.03
2022-08-11T07:44:17.120Z,100829.69
2022-08-11T07:47:08.200Z,100759.66
2022-08-11T07:49:58.590Z,100834.56
2022-08-11T07:52:34.252Z,100797.22
2022-08-11T07:55:08.636Z,100806.47
2022-08-11T07:58:16.520Z,100833.59
2022-08-11T08:01:21.922Z,100859.56
2022-08-11T08:04:09.643Z,100840.94
2022-08-11T08:06:57.432Z,100829.94
2022-08-11T08:09:45.527Z,100838.50
2022-08-11T08:12:34.822Z,100823.75
2022-08-11T08:15:25.220Z,100827.50
2022-08-11T08:18:09.567Z,100832.34
2022-08-11T08:20:52.500Z,100833.94
2022-08-11T08:23:33.474Z,100826.34
2022-08-11T08:26:27.112Z,100837.41
2022-08-11T08:29:16.741Z,100826.72
2022-08-11T08:31:44.205Z,100834.28
2022-08-11T08:34:13.906Z,100817.19
2022-08-11T08:36:44.396Z,100826.09
2022-08-11T08:39:13.611Z,100836.53
2022-08-11T08:41:42.723Z,100827.97
2022-08-11T08:44:37.168Z,100826.19
2022-08-11T08:47:01.068Z,100814.00
2022-08-11T08:49:40.594Z,100807.59
2022-08-11T08:52:26.274Z,100807.22
2022-08-11T08:55:04.419Z,100824.22
2022-08-11T08:57:39.880Z,100809.09
2022-08-11T09:00:12.504Z,100819.06
2022-08-11T09:02:42.645Z,100833.84
2022-08-11T09:05:10.414Z,100830.72
2022-08-11T09:07:40.611Z,100832.00
2022-08-11T09:10:11.022Z,100825.31
2022-08-11T09:12:40.625Z,100809.00
2022-08-11T09:15:10.519Z,100828.94
2022-08-11T09:17:47.203Z,100783.19
2022-08-11T09:20:26.325Z,100803.91
2022-08-11T09:26:30.408Z,100822.81
2022-08-11T09:29:00.621Z,100824.22
2022-08-11T09:31:35.837Z,100816.06
2022-08-11T09:34:07.139Z,100824.16
2022-08-11T09:36:53.069Z,100782.09
2022-08-11T09:39:39.113Z,100766.81
2022-08-11T09:42:06.724Z,100805.25
2022-08-11T09:44:49.406Z,100793.09
2022-08-11T09:47:28.374Z,100781.59
2022-08-11T09:50:02.651Z,100786.91
2022-08-11T09:52:38.555Z,100798.66
2022-08-11T09:55:11.394Z,100792.84
2022-08-11T09:57:59.491Z,100798.59
2022-08-11T10:00:32.940Z,100789.91
2022-08-11T10:03:02.767Z,100786.72
2022-08-11T10:05:49.488Z,100788.78
2022-08-11T10:08:19.760Z,100757.16
2022-08-11T10:10:48.212Z,100775.00
2022-08-11T10:13:44.023Z,100760.91
2022-08-11T10:16:15.447Z,100763.09
2022-08-11T10:18:54.358Z,100789.13
2022-08-11T10:21:42.206Z,100784.84
2022-08-11T10:24:30.506Z,100794.81
2022-08-11T10:27:03.523Z,100768.16
2022-08-11T10:29:52.217Z,100781.94
2022-08-11T10:32:57.779Z,100779.03
2022-08-11T10:35:31.949Z,100740.81
2022-08-11T10:38:07.916Z,100781.81
2022-08-11T10:40:45.458Z,100788.25
2022-08-11T10:44:00.417Z,100778.78
2022-08-11T10:46:27.592Z,100739.59
2022-08-11T10:48:59.215Z,100766.00
2022-08-11T10:51:51.079Z,100761.44
2022-08-11T10:54:40.097Z,100756.88
2022-08-11T10:57:27.872Z,100736.53
2022-08-11T10:59:57.981Z,100779.31
2022-08-11T11:02:27.489Z,100763.22
2022-08-11T11:05:03.799Z,100762.34
2022-08-11T11:08:04.166Z,100759.38
2022-08-11T11:10:32.411Z,100770.28
2022-08-11T11:13:18.241Z,100773.53
2022-08-11T11:16:06.998Z,100752.25
2022-08-11T11:18:37.492Z,100761.66
2022-08-11T11:21:15.807Z,100759.84
2022-08-11T11:24:11.038Z,100750.22
2022-08-11T11:27:00.847Z,100745.47
2022-08-11T11:29:40.829Z,100745.25
2022-08-11T11:32:20.275Z,100747.44
2022-08-11T11:34:53.601Z,100744.13
2022-08-11T11:37:25.829Z,100726.31
2022-08-11T11:39:55.488Z,100733.50
2022-08-11T11:42:23.840Z,100738.53
2022-08-11T11:44:55.312Z,100742.31
2022-08-11T11:47:23.842Z,100759.41
2022-08-11T11:49:51.260Z,100757.34
2022-08-11T11:52:20.438Z,100734.91
2022-08-11T11:54:50.447Z,100745.84
2022-08-11T11:57:39.110Z,100725.03
2022-08-11T12:00:33.336Z,100743.13
2022-08-11T12:03:03.806Z,100742.56
2022-08-11T12:05:34.915Z,100753.09
2022-08-11T12:08:16.348Z,100735.50
2022-08-11T12:11:13.862Z,100731.13
2022-08-11T12:13:43.688Z,100737.38
2022-08-11T12:16:34.727Z,100730.72
2022-08-11T12:19:02.202Z,100734.75
2022-08-11T12:21:30.165Z,100687.22
2022-08-11T12:24:20.716Z,100731.09
2022-08-11T12:26:54.381Z,100720.25
2022-08-11T12:29:39.983Z,100729.44
2022-08-11T12:32:12.132Z,100734.91
2022-08-11T12:34:39.288Z,100726.38
2022-08-11T12:37:13.228Z,100717.41
2022-08-11T12:40:15.977Z,100710.13
2022-08-11T12:43:21.529Z,100724.47
2022-08-11T12:46:02.722Z,100737.56
2022-08-11T12:49:00.971Z,100722.47
2022-08-11T12:52:10.933Z,100717.97
2022-08-11T12:54:57.398Z,100724.72
2022-08-11T12:58:05.441Z,100721.75
2022-08-11T13:00:52.207Z,100707.09
2022-08-11T13:03:41.473Z,100707.00
2022-08-11T13:06:24.451Z,100717.91
2022-08-11T13:08:53.719Z,100721.47
2022-08-11T13:12:24.903Z,100713.81
2022-08-11T13:14:52.259Z,100696.38
2022-08-11T13:17:40.273Z,100683.75
2022-08-11T13:20:13.079Z,100719.38
2022-08-11T13:22:45.831Z,100719.72
2022-08-11T13:25:16.395Z,100712.84
2022-08-11T13:27:46.244Z,100682.91
2022-08-11T13:30:41.175Z,100714.31
2022-08-11T13:33:11.377Z,100720.47
2022-08-11T13:35:39.667Z,100692.22
2022-08-11T13:38:18.712Z,100697.22
2022-08-11T13:40:55.751Z,100717.84
2022-08-11T13:43:25.468Z,100706.56
2022-08-11T13:46:13.858Z,100697.66
2022-08-11T13:48:42.387Z,100697.47
2022-08-11T13:51:34.363Z,100694.50
2022-08-11T13:54:20.354Z,100699.44
2022-08-11T13:56:51.387Z,100690.31
2022-08-11T13:59:24.148Z,100709.25
2022-08-11T14:02:21.587Z,100665.59
2022-08-11T14:04:59.078Z,100700.78
2022-08-11T14:07:35.815Z,100693.31
2022-08-11T14:10:06.345Z,100623.34
2022-08-11T14:12:54.192Z,100692.09
2022-08-11T14:15:31.324Z,100690.75
2022-08-11T14:18:13.226Z,100640.06
2022-08-11T14:21:01.798Z,100664.66
2022-08-11T14:23:43.267Z,100675.66
2022-08-11T14:26:31.217Z,100681.91
2022-08-11T14:29:04.952Z,100692.59
2022-08-11T14:31:38.175Z,100673.63
2022-08-11T14:34:10.407Z,100660.56
2022-08-11T14:36:44.216Z,100667.25
2022-08-11T14:39:22.410Z,100645.94
2022-08-11T14:42:13.380Z,100660.00
2022-08-11T14:45:05.270Z,100675.94
2022-08-11T14:47:42.342Z,100662.47
2022-08-11T14:50:17.980Z,100661.00
2022-08-11T14:53:00.592Z,100668.78
2022-08-11T14:55:48.704Z,100667.56
2022-08-11T14:58:23.478Z,100655.31
2022-08-11T15:00:54.570Z,100659.84
2022-08-11T15:03:27.968Z,100662.78
2022-08-11T15:06:00.234Z,100640.28
2022-08-11T15:08:49.554Z,100640.50
2022-08-11T15:11:37.595Z,100654.56
2022-08-11T15:14:07.656Z,100657.13
2022-08-11T15:16:59.482Z,100643.81
2022-08-11T15:19:40.114Z,100655.31
2022-08-11T15:22:28.256Z,100658.03
2022-08-11T15:24:58.758Z,100665.94
2022-08-11T15:27:47.099Z,100667.72
2022-08-11T15:30:40.490Z,100656.38
2022-08-11T15:33:28.921Z,100657.59
2022-08-11T15:36:16.472Z,100669.09
2022-08-11T15:38:49.379Z,100670.25
2022-08-11T15:41:58.474Z,100634.47
2022-08-11T15:45:06.238Z,100667.78
2022-08-11T15:47:41.594Z,100663.50
2022-08-11T15:50:15.458Z,100667.06
2022-08-11T15:52:54.582Z,100633.13
2022-08-11T15:55:23.771Z,100615.91
2022-08-11T15:58:12.110Z,100662.97
2022-08-11T16:01:04.295Z,100676.41
2022-08-11T16:04:12.970Z,100670.44
2022-08-11T16:06:57.796Z,100668.84
2022-08-11T16:09:51.669Z,100659.94
2022-08-11T16:12:23.460Z,100654.91
2022-08-11T16:15:13.108Z,100674.34
2022-08-11T16:18:03.434Z,100670.34
2022-08-11T16:20:32.103Z,100659.00
2022-08-11T16:23:03.771Z,100674.16
2022-08-11T16:27:04.808Z,100634.91
2022-08-11T16:28:27.224Z,100669.25
2022-08-11T16:30:57.157Z,100627.47
2022-08-11T16:33:49.566Z,100653.97
2022-08-11T16:36:34.243Z,100627.34
2022-08-11T16:39:03.462Z,100667.50
2022-08-11T16:41:52.434Z,100650.44
2022-08-11T16:44:40.219Z,100656.69
2022-08-11T16:47:13.321Z,100636.97
2022-08-11T16:49:54.099Z,100659.84
2022-08-11T16:52:24.466Z,100658.09
2022-08-11T16:54:52.916Z,100666.31
2022-08-11T16:57:43.926Z,100662.25
2022-08-11T17:00:15.512Z,100660.91
2022-08-11T17:03:10.392Z,100641.28
2022-08-11T17:06:11.486Z,100675.88
2022-08-11T17:09:09.318Z,100664.72
2022-08-11T17:12:00.928Z,100657.13
2022-08-11T17:14:51.968Z,100678.66
2022-08-11T17:17:27.651Z,100666.28
2022-08-11T17:20:43.510Z,100664.53
2022-08-11T17:23:05.306Z,100669.94
2022-08-11T17:25:59.892Z,100675.28
2022-08-11T17:28:24.547Z,100675.50
2022-08-11T17:31:32.766Z,100680.97
2022-08-11T17:34:20.355Z,100671.66
2022-08-11T17:36:51.254Z,100684.34
2022-08-11T17:39:19.948Z,100682.75
2022-08-11T17:42:16.481Z,100685.69
2022-08-11T17:45:03.990Z,100688.56
2022-08-11T17:47:51.222Z,100657.41
2022-08-11T17:50:19.584Z,100656.75
2022-08-11T17:53:06.158Z,100686.31
2022-08-11T17:55:54.779Z,100691.53
2022-08-11T17:58:42.070Z,100688.13
2022-08-11T18:01:11.961Z,100686.47
2022-08-11T18:06:34.544Z,100699.00
2022-08-11T18:09:24.241Z,100689.25
2022-08-11T18:12:14.718Z,100699.16
2022-08-11T18:15:04.951Z,100680.97
2022-08-11T18:17:56.241Z,100696.03
2022-08-11T18:20:43.283Z,100682.16
2022-08-11T18:23:43.393Z,100662.03
2022-08-11T18:26:39.436Z,100684.72
2022-08-11T18:29:27.251Z,100703.09
2022-08-11T18:32:21.211Z,100663.84
2022-08-11T18:35:14.576Z,100701.50
2022-08-11T18:38:05.683Z,100695.47
2022-08-11T18:40:54.235Z,100700.94
2022-08-11T18:43:42.649Z,100705.63
2022-08-11T18:46:31.601Z,100717.34
2022-08-11T18:49:22.003Z,100713.81
2022-08-11T18:52:11.354Z,100721.69
2022-08-11T18:55:00.517Z,100681.41
2022-08-11T18:57:50.160Z,100718.13
2022-08-11T19:00:44.958Z,100713.75
2022-08-11T19:03:43.350Z,100698.97
2022-08-11T19:06:40.719Z,100713.00
2022-08-11T19:09:33.283Z,100709.59
2022-08-11T19:12:21.594Z,100721.03
2022-08-11T19:15:09.828Z,100699.38
2022-08-11T19:18:00.381Z,100724.25
2022-08-11T19:20:49.967Z,100732.50
2022-08-11T19:23:43.980Z,100719.75
2022-08-11T19:26:30.310Z,100726.00
2022-08-11T19:30:07.415Z,100733.38
2022-08-11T19:32:25.151Z,100734.53
2022-08-11T19:35:15.127Z,100733.69
2022-08-11T19:38:05.269Z,100726.72
2022-08-11T19:40:51.573Z,100733.72
2022-08-11T19:43:38.264Z,100748.75
2022-08-11T19:46:25.244Z,100749.72
2022-08-11T19:49:13.838Z,100721.50
2022-08-11T19:52:00.962Z,100699.94
2022-08-11T19:54:52.534Z,100748.41
2022-08-11T19:57:40.918Z,100741.44
2022-08-11T20:00:33.429Z,100701.34
2022-08-11T20:03:20.407Z,100738.88
2022-08-11T20:06:09.617Z,100691.72
2022-08-11T20:08:59.132Z,100741.50
2022-08-11T20:11:48.796Z,100746.25
2022-08-11T20:14:36.473Z,100735.44
2022-08-11T20:17:31.282Z,100753.69
2022-08-11T20:20:20.508Z,100747.44
2022-08-11T20:23:07.994Z,100756.06
2022-08-11T20:26:03.445Z,100745.44
2022-08-11T20:28:55.867Z,100760.47
2022-08-11T20:31:42.883Z,100728.91
2022-08-11T20:34:30.469Z,100752.66
2022-08-11T20:37:20.525Z,100736.22
2022-08-11T20:40:09.345Z,100747.66
2022-08-11T20:42:59.237Z,100760.03
2022-08-11T20:45:55.305Z,100750.50
2022-08-11T20:48:43.906Z,100755.03
2022-08-11T20:54:43.719Z,100763.22
2022-08-11T20:58:00.212Z,100745.03
2022-08-11T21:00:54.236Z,100773.97
2022-08-11T21:03:52.318Z,100766.97
2022-08-11T21:06:48.597Z,100763.53
2022-08-11T21:10:00.887Z,100766.50
2022-08-11T21:12:50.547Z,100727.78
2022-08-11T21:15:47.215Z,100707.97
2022-08-11T21:18:45.068Z,100772.84
2022-08-11T21:21:45.764Z,100771.22
2022-08-11T21:24:35.845Z,100767.72
2022-08-11T21:27:27.052Z,100776.59
2022-08-11T21:30:15.966Z,100771.53
2022-08-11T21:33:02.728Z,100778.84
2022-08-11T21:35:49.443Z,100758.97
2022-08-11T21:38:35.894Z,100735.41
2022-08-11T21:41:22.639Z,100796.88
2022-08-11T21:44:09.451Z,100798.59
2022-08-11T21:46:56.852Z,100785.41
2022-08-11T21:49:44.669Z,100795.84
2022-08-11T21:52:31.026Z,100795.97
2022-08-11T21:55:17.827Z,100795.19
2022-08-11T21:58:05.168Z,100804.16
2022-08-11T22:00:51.194Z,100775.38
2022-08-11T22:03:50.037Z,100796.50
2022-08-11T22:06:37.329Z,100792.16
2022-08-11T22:09:22.881Z,100776.41
2022-08-11T22:12:33.689Z,100806.25
2022-08-11T22:15:15.950Z,100796.59
2022-08-11T22:18:02.509Z,100801.88
2022-08-11T22:20:49.125Z,100797.56
2022-08-11T22:23:37.248Z,100789.72
2022-08-11T22:26:24.263Z,100823.97
2022-08-11T22:29:10.214Z,100810.84
2022-08-11T22:31:57.859Z,100820.53
2022-08-11T22:34:51.216Z,100782.00
2022-08-11T22:37:40.490Z,100793.38
2022-08-11T22:40:28.876Z,100793.44
2022-08-11T22:43:14.434Z,100809.19
2022-08-11T22:46:00.216Z,100811.00
2022-08-11T22:48:49.175Z,100823.28
2022-08-11T22:51:38.626Z,100832.97
2022-08-11T22:54:24.189Z,100829.50
2022-08-11T22:57:11.016Z,100827.78
2022-08-11T22:59:58.212Z,100838.38
2022-08-11T23:02:46.817Z,100822.56
2022-08-11T23:05:34.074Z,100822.56
2022-08-11T23:08:20.157Z,100828.75
2022-08-11T23:11:06.978Z,100820.88
2022-08-11T23:13:53.802Z,100771.78
2022-08-11T23:16:40.811Z,100827.91
2022-08-11T23:20:00.357Z,100842.88
2022-08-11T23:22:49.075Z,100822.72
2022-08-11T23:25:35.247Z,100819.22
2022-08-11T23:28:22.262Z,100839.44
2022-08-11T23:31:12.163Z,100845.59
2022-08-11T23:34:00.795Z,100841.25
2022-08-11T23:36:47.217Z,100828.88
2022-08-11T23:39:35.368Z,100849.88
2022-08-11T23:42:21.786Z,100841.13
2022-08-11T23:45:09.711Z,100841.22
2022-08-11T23:47:58.338Z,100840.41
2022-08-11T23:50:44.016Z,100844.84
2022-08-11T23:53:31.555Z,100826.41
2022-08-11T23:56:17.911Z,100830.81
2022-08-11T23:59:09.545Z,100843.97
